Time;durP1;ratioP1;P1;durP2;ratioP2;P2;SDS_P1;SDS_P2;PMS_P1;PMS_P2;Temp;Humidity;BMP_temperature;BMP_pressure;BME280_temperature;BME280_humidity;BME280_pressure;Samples;Min_cycle;Max_cycle;Signal;HPM_P1;HPM_P2
2022/11/17 00:00:44;;;;;;;6.07;2.42;;;;;;;11.18;72.37;98763.88;4148738;28;20042;-66
2022/11/17 00:02:47;;;;;;;9.43;2.40;;;;;;;11.30;71.71;98769.75;4147865;28;20048;-66
2022/11/17 00:04:51;;;;;;;11.40;2.67;;;;;;;11.21;72.48;98765.53;4142437;28;20403;-66
2022/11/17 00:06:54;;;;;;;5.43;2.70;;;;;;;11.26;72.10;98757.69;4148172;28;20049;-66
2022/11/17 00:08:57;;;;;;;6.65;2.40;;;;;;;11.22;71.99;98758.63;4147802;28;20141;-66
2022/11/17 00:11:00;;;;;;;8.43;2.25;;;;;;;11.30;71.80;98746.34;4129278;28;20069;-66
2022/11/17 00:15:23;;;;;;;5.57;2.53;;;;;;;11.22;72.40;98735.22;4147792;28;20042;-66
2022/11/17 00:17:26;;;;;;;9.13;2.33;;;;;;;11.21;72.09;98742.13;4148553;28;20507;-66
2022/11/17 00:21:52;;;;;;;3.33;1.83;;;;;;;11.23;72.34;98726.50;4148326;28;20484;-66
2022/11/17 00:23:56;;;;;;;6.10;2.25;;;;;;;11.28;71.44;98720.34;4137004;28;20531;-66
2022/11/17 00:25:58;;;;;;;5.10;2.20;;;;;;;11.27;71.32;98720.38;4145001;28;20034;-66
2022/11/17 00:28:01;;;;;;;5.63;2.20;;;;;;;11.25;71.30;98711.75;4146548;28;20066;-66
2022/11/17 00:30:05;;;;;;;4.78;2.30;;;;;;;11.24;70.92;98712.63;4147264;28;20088;-66
2022/11/17 00:34:31;;;;;;;3.47;2.05;;;;;;;11.29;71.09;98705.63;4144886;28;20069;-66
2022/11/17 00:36:37;;;;;;;8.63;2.30;;;;;;;11.28;71.08;98696.09;4145827;28;20153;-66
2022/11/17 00:38:41;;;;;;;3.88;2.40;;;;;;;11.35;70.84;98695.09;4146341;28;20065;-66
2022/11/17 00:40:44;;;;;;;7.30;2.88;;;;;;;11.39;70.54;98685.47;4146103;28;20076;-66
2022/11/17 00:42:47;;;;;;;8.57;2.83;;;;;;;11.32;70.92;98684.75;4147098;28;20064;-66
2022/11/17 00:44:50;;;;;;;6.75;2.28;;;;;;;11.29;71.29;98683.06;4143939;28;20050;-66
2022/11/17 00:46:52;;;;;;;4.78;2.00;;;;;;;11.30;71.86;98686.50;4149858;28;20041;-66
2022/11/17 00:48:55;;;;;;;6.85;2.60;;;;;;;11.29;71.46;98684.81;4148005;28;20034;-66
2022/11/17 00:51:03;;;;;;;6.57;2.60;;;;;;;11.35;70.81;98680.34;4147641;28;20084;-66
2022/11/17 00:53:06;;;;;;;8.80;2.65;;;;;;;11.43;69.98;98679.34;4147785;28;20127;-66
2022/11/17 00:55:10;;;;;;;7.47;2.40;;;;;;;11.38;71.04;98684.63;4143653;28;20515;-66
2022/11/17 00:57:13;;;;;;;8.43;2.83;;;;;;;11.46;70.52;98677.56;4145389;28;20045;-66
2022/11/17 00:59:16;;;;;;;8.68;2.92;;;;;;;11.39;70.27;98668.16;4145705;28;20034;-65
2022/11/17 01:01:19;;;;;;;7.35;2.50;;;;;;;11.42;70.56;98669.81;4146533;28;20046;-66
2022/11/17 01:03:22;;;;;;;9.55;2.90;;;;;;;11.35;70.33;98656.91;4146977;28;20046;-66
2022/11/17 01:05:25;;;;;;;6.22;2.80;;;;;;;11.35;71.02;98663.88;4133987;28;20073;-66
2022/11/17 01:07:40;;;;;;;6.40;2.47;;;;;;;11.40;70.39;98658.59;4146620;28;20050;-66
2022/11/17 01:09:43;;;;;;;4.03;2.20;;;;;;;11.37;69.87;98649.09;4145870;28;20067;-66
2022/11/17 01:11:48;;;;;;;5.05;2.40;;;;;;;11.39;70.76;98641.25;4147774;28;20042;-66
2022/11/17 01:13:54;;;;;;;6.40;2.78;;;;;;;11.36;70.32;98644.78;4161198;28;20103;-66
2022/11/17 01:16:02;;;;;;;7.97;2.80;;;;;;;11.45;71.23;98643.75;4130345;28;20105;-66
2022/11/17 01:18:05;;;;;;;7.10;2.13;;;;;;;11.49;70.19;98633.25;4137983;28;20034;-66
2022/11/17 01:20:09;;;;;;;6.63;2.13;;;;;;;11.38;69.50;98630.00;4147715;28;20037;-66
2022/11/17 01:22:11;;;;;;;7.68;2.60;;;;;;;11.26;70.79;98632.84;4147734;28;20034;-66
2022/11/17 01:24:16;;;;;;;5.72;2.78;;;;;;;11.18;70.64;98641.63;4140536;28;20038;-66
2022/11/17 01:26:22;;;;;;;4.90;2.67;;;;;;;11.21;70.95;98634.66;4148980;28;20041;-66
2022/11/17 01:28:26;;;;;;;7.78;2.92;;;;;;;11.50;69.63;98614.13;4145880;28;20169;-65
2022/11/17 01:30:29;;;;;;;6.78;2.70;;;;;;;11.38;70.31;98601.38;4146656;28;20537;-66
2022/11/17 01:32:31;;;;;;;4.07;2.30;;;;;;;11.28;70.83;98594.63;4145649;28;20072;-66
2022/11/17 01:34:34;;;;;;;4.60;2.13;;;;;;;11.27;71.26;98592.91;4145063;28;20088;-66
2022/11/17 01:38:56;;;;;;;7.15;2.63;;;;;;;11.20;71.66;98593.91;4146386;28;20034;-65
2022/11/17 01:41:00;;;;;;;6.55;2.05;;;;;;;11.25;72.14;98587.75;4145504;28;20046;-66
2022/11/17 01:43:05;;;;;;;6.80;2.78;;;;;;;11.30;71.24;98583.31;4146589;28;20038;-65
2022/11/17 01:45:19;;;;;;;3.92;2.05;;;;;;;11.29;70.69;98580.75;4145385;28;20065;-65
2022/11/17 01:47:26;;;;;;;4.50;2.30;;;;;;;11.29;71.24;98562.53;4145295;28;20565;-65
2022/11/17 01:49:29;;;;;;;4.38;2.25;;;;;;;11.26;71.03;98573.00;4143784;28;20320;-65
2022/11/17 01:51:38;;;;;;;3.92;1.90;;;;;;;11.25;71.51;98566.09;4145276;28;20124;-66
2022/11/17 01:53:42;;;;;;;6.78;2.05;;;;;;;11.22;71.67;98580.00;4143736;28;20038;-66
2022/11/17 01:55:50;;;;;;;6.32;2.53;;;;;;;11.27;70.94;98572.09;4160467;28;20037;-66
2022/11/17 01:57:58;;;;;;;8.40;2.83;;;;;;;11.32;70.35;98565.09;4145354;28;20046;-66
2022/11/17 02:00:04;;;;;;;6.75;2.65;;;;;;;11.34;70.28;98558.09;4146186;28;20045;-65
2022/11/17 02:02:08;;;;;;;6.72;2.25;;;;;;;11.38;70.16;98546.75;4146264;28;20034;-65
2022/11/17 02:04:11;;;;;;;5.22;2.40;;;;;;;11.34;70.33;98539.88;4145669;28;20047;-65
2022/11/17 02:06:20;;;;;;;6.72;3.00;;;;;;;11.29;70.17;98539.13;4139031;28;20092;-66
2022/11/17 02:08:27;;;;;;;4.75;2.45;;;;;;;11.27;70.69;98535.69;4145567;28;20034;-65
2022/11/17 02:10:31;;;;;;;5.93;2.05;;;;;;;11.24;70.64;98527.94;4147280;28;20400;-65
2022/11/17 02:12:36;;;;;;;5.70;2.03;;;;;;;11.33;70.65;98517.34;4147278;28;20497;-66
2022/11/17 02:14:39;;;;;;;8.18;2.40;;;;;;;11.26;70.88;98519.22;4144485;28;20670;-65
2022/11/17 02:16:42;;;;;;;5.35;2.03;;;;;;;11.30;71.09;98509.59;4147339;28;20492;-65
2022/11/17 02:18:48;;;;;;;5.93;2.25;;;;;;;11.33;70.35;98505.22;4147219;28;20034;-66
2022/11/17 02:21:05;;;;;;;6.75;2.40;;;;;;;11.33;70.31;98504.34;4147378;28;20049;-66
2022/11/17 02:23:43;;;;;;;4.57;1.90;;;;;;;11.32;70.34;98502.66;4145533;28;20041;-65
2022/11/17 02:25:56;;;;;;;5.70;2.10;;;;;;;11.33;70.37;98499.13;4125352;28;20089;-66
2022/11/17 02:28:10;;;;;;;6.18;2.05;;;;;;;11.38;69.93;98491.25;4140617;28;20037;-66
2022/11/17 02:30:16;;;;;;;5.43;1.88;;;;;;;11.32;69.84;98481.84;4147118;28;20038;-66
2022/11/17 02:32:26;;;;;;;4.78;2.00;;;;;;;11.40;69.90;98479.91;4147402;28;20034;-66
2022/11/17 02:34:37;;;;;;;6.13;2.38;;;;;;;11.38;69.61;98483.47;4146978;28;20037;-66
2022/11/17 02:36:46;;;;;;;4.63;1.70;;;;;;;11.41;69.94;98476.44;4148472;28;20030;-65
2022/11/17 02:38:58;;;;;;;5.57;1.98;;;;;;;11.50;68.46;98477.97;4149350;28;20069;-65
2022/11/17 02:41:08;;;;;;;3.97;2.00;;;;;;;11.52;68.49;98470.97;4142983;28;20042;-65
2022/11/17 02:45:44;;;;;;;6.45;2.22;;;;;;;11.37;69.52;98473.94;4146608;28;20042;-65
2022/11/17 02:47:53;;;;;;;6.85;2.42;;;;;;;11.35;69.92;98474.81;4145495;28;20081;-65
2022/11/17 02:50:00;;;;;;;3.92;2.03;;;;;;;11.33;69.42;98474.00;4147290;28;20030;-65
2022/11/17 02:52:06;;;;;;;5.13;2.10;;;;;;;11.36;70.10;98467.88;4149835;28;20042;-65
2022/11/17 02:54:09;;;;;;;2.85;1.77;;;;;;;11.39;69.37;98469.53;4147412;28;20037;-66
2022/11/17 02:56:12;;;;;;;3.38;1.90;;;;;;;11.36;69.86;98457.47;4149557;28;20050;-65
2022/11/17 02:58:16;;;;;;;5.13;2.35;;;;;;;11.39;70.26;98452.19;4164160;28;20447;-65
2022/11/17 03:00:20;;;;;;;5.75;2.30;;;;;;;11.36;69.52;98457.47;4148815;28;20064;-65
2022/11/17 03:02:35;;;;;;;3.92;1.52;;;;;;;11.17;70.91;98475.22;4145114;28;20045;-66
2022/11/17 03:04:46;;;;;;;4.90;2.15;;;;;;;11.35;70.45;98459.19;4146691;28;20057;-65
2022/11/17 03:06:59;;;;;;;2.88;1.75;;;;;;;11.32;70.68;98468.84;4144466;28;20042;-65
2022/11/17 03:09:12;;;;;;;4.10;2.45;;;;;;;11.30;70.33;98465.38;4147920;28;20120;-65
2022/11/17 03:11:16;;;;;;;3.42;1.65;;;;;;;11.39;70.21;98461.72;4148010;28;20041;-65
2022/11/17 03:13:25;;;;;;;4.45;2.15;;;;;;;11.37;69.94;98479.13;4146929;28;20042;-66
2022/11/17 03:15:41;;;;;;;6.97;1.80;;;;;;;11.41;69.68;98479.03;4147499;28;20116;-66
2022/11/17 03:17:47;;;;;;;;;;;;;;;11.43;70.06;98459.03;4147598;28;20054;-66
2022/11/17 03:19:57;;;;;;;4.65;1.92;;;;;;;11.29;70.50;98458.50;4141812;28;19983;-66
2022/11/17 03:22:08;;;;;;;3.88;1.73;;;;;;;11.27;71.23;98478.47;4145798;28;20041;-66
2022/11/17 03:24:16;;;;;;;3.53;1.70;;;;;;;11.39;70.45;98472.13;4146965;28;20414;-66
2022/11/17 03:26:24;;;;;;;3.58;1.63;;;;;;;11.32;70.57;98476.63;4147708;28;20128;-66
2022/11/17 03:28:31;;;;;;;3.90;2.10;;;;;;;11.39;70.48;98473.00;4148172;28;20045;-66
2022/11/17 03:30:37;;;;;;;6.53;2.00;;;;;;;11.28;71.46;98486.22;4147694;28;20034;-66
2022/11/17 03:32:43;;;;;;;5.18;1.92;;;;;;;11.28;71.57;98487.97;4149025;28;20488;-66
2022/11/17 03:34:52;;;;;;;5.45;2.60;;;;;;;11.29;71.73;98466.28;4145930;28;20089;-65
2022/11/17 03:37:00;;;;;;;2.75;1.70;;;;;;;11.43;70.77;98463.38;4140532;28;20096;-66
2022/11/17 03:39:08;;;;;;;4.15;1.90;;;;;;;11.27;71.24;98468.06;4142853;28;20477;-66
2022/11/17 03:41:14;;;;;;;6.80;2.42;;;;;;;11.27;71.82;98448.13;4158000;28;20056;-66
2022/11/17 03:43:20;;;;;;;8.20;2.08;;;;;;;11.24;71.90;98447.31;4146591;28;20046;-66
2022/11/17 03:45:27;;;;;;;8.18;2.20;;;;;;;11.20;72.99;98449.13;4147303;28;20146;-66
2022/11/17 03:47:32;;;;;;;3.58;1.58;;;;;;;11.26;72.51;98450.75;4147142;28;20408;-66
2022/11/17 03:49:42;;;;;;;4.75;2.03;;;;;;;11.27;73.06;98460.25;4147930;28;20041;-66
2022/11/17 03:51:45;;;;;;;3.63;1.75;;;;;;;11.18;72.81;98464.78;4147945;28;20460;-66
2022/11/17 03:53:49;;;;;;;5.57;2.50;;;;;;;11.25;72.74;98460.28;4146321;28;21202;-66
2022/11/17 03:55:57;;;;;;;5.17;2.10;;;;;;;11.30;72.78;98458.47;4140149;28;20041;-66
2022/11/17 03:58:06;;;;;;;3.83;1.77;;;;;;;11.12;73.13;98464.88;4148059;28;20360;-65
2022/11/17 04:00:11;;;;;;;5.43;2.28;;;;;;;11.08;74.52;98467.56;4147877;28;20049;-65
2022/11/17 04:02:17;;;;;;;4.75;2.05;;;;;;;11.18;73.80;98469.09;4144748;28;20034;-65
2022/11/17 04:04:22;;;;;;;6.45;1.88;;;;;;;11.08;74.59;98471.06;4144752;28;20534;-65
2022/11/17 04:06:25;;;;;;;;;;;;;;;11.04;74.54;98481.53;4147721;28;20389;-65
2022/11/17 04:08:29;;;;;;;3.40;1.90;;;;;;;10.97;74.73;98470.41;4147625;28;19922;-66
2022/11/17 04:15:54;;;;;;;3.65;1.90;;;;;;;10.95;74.60;98461.75;4148376;28;20121;-65
2022/11/17 04:17:37;;;;;;;5.32;2.42;;;;;;;11.00;75.93;98465.97;4161260;28;20051;-66
2022/11/17 04:19:40;;;;;;;3.45;2.00;;;;;;;10.80;75.61;98474.16;4163590;28;20531;-66
2022/11/17 04:21:42;;;;;;;3.88;1.83;;;;;;;10.88;75.93;98475.75;4145848;28;20037;-66
2022/11/17 04:23:45;;;;;;;4.75;2.35;;;;;;;10.88;76.44;98476.63;4146866;28;20042;-65
2022/11/17 04:30:31;;;;;;;5.43;2.60;;;;;;;10.95;76.00;98475.63;4141696;28;20121;-65
2022/11/17 04:32:34;;;;;;;5.18;1.92;;;;;;;10.97;75.76;98460.84;4146185;28;20120;-65
2022/11/17 04:34:41;;;;;;;6.93;2.30;;;;;;;10.88;76.58;98473.16;4146748;28;20046;-65
2022/11/17 04:36:44;;;;;;;6.75;2.40;;;;;;;10.85;77.39;98475.81;4148357;28;20492;-65
2022/11/17 04:38:49;;;;;;;6.53;2.10;;;;;;;10.95;76.69;98472.16;4145322;28;20471;-65
2022/11/17 04:43:12;;;;;;;4.90;2.50;;;;;;;11.03;77.11;98451.22;4146347;28;20578;-65
2022/11/17 04:45:15;;;;;;;3.25;2.00;;;;;;;10.78;77.77;98444.75;4144271;28;20042;-65
2022/11/17 04:47:18;;;;;;;5.70;2.38;;;;;;;10.85;77.84;98442.91;4146518;28;20073;-65
2022/11/17 04:49:22;;;;;;;5.25;2.20;;;;;;;10.78;77.22;98438.72;4148927;28;20076;-65
2022/11/17 04:51:27;;;;;;;2.72;1.95;;;;;;;10.83;77.13;98442.94;4149823;28;20527;-66
2022/11/17 04:53:30;;;;;;;4.68;2.40;;;;;;;10.77;77.40;98436.97;4145345;28;20042;-65
2022/11/17 04:55:33;;;;;;;4.53;1.77;;;;;;;10.69;77.74;98431.94;4146988;28;20076;-65
2022/11/17 04:57:36;;;;;;;4.25;2.38;;;;;;;10.77;77.82;98432.63;4146247;28;20034;-65
2022/11/17 04:59:38;;;;;;;6.60;2.38;;;;;;;10.61;77.78;98437.25;4146790;28;20070;-65
2022/11/17 05:01:41;;;;;;;5.78;2.25;;;;;;;10.64;78.51;98441.56;4147819;28;20087;-65
2022/11/17 05:03:46;;;;;;;4.93;2.40;;;;;;;10.70;78.28;98443.19;4145513;28;20639;-65
2022/11/17 05:05:49;;;;;;;;;;;;;;;10.59;78.01;98443.41;4145792;28;20034;-65
2022/11/17 05:07:53;;;;;;;7.18;3.00;;;;;;;10.65;77.61;98438.06;4140544;28;19925;-65
2022/11/17 05:09:56;;;;;;;5.85;2.17;;;;;;;10.64;78.55;98436.34;4145559;28;20049;-65
2022/11/17 05:14:20;;;;;;;6.15;2.25;;;;;;;10.60;78.35;98439.88;4142064;28;20042;-65
2022/11/17 05:18:44;;;;;;;3.80;2.17;;;;;;;10.64;78.19;98437.22;4147830;28;20048;-66
2022/11/17 05:20:47;;;;;;;4.47;2.13;;;;;;;10.60;78.74;98419.97;4146563;28;20042;-66
2022/11/17 05:25:11;;;;;;;6.85;2.33;;;;;;;10.66;78.23;98421.59;4146637;28;20049;-65
2022/11/17 05:27:14;;;;;;;4.25;2.00;;;;;;;10.58;78.61;98433.88;4146803;28;20041;-66
2022/11/17 05:29:19;;;;;;;5.85;2.42;;;;;;;10.60;78.01;98434.69;4146873;28;20042;-66
2022/11/17 05:31:22;;;;;;;6.70;2.83;;;;;;;10.61;77.63;98431.22;4147715;28;20045;-66
2022/11/17 05:33:25;;;;;;;4.82;2.42;;;;;;;10.58;77.69;98426.09;4148672;28;20124;-65
2022/11/17 05:35:28;;;;;;;4.38;2.33;;;;;;;10.59;78.37;98433.84;4146304;28;20503;-65
2022/11/17 05:37:30;;;;;;;8.38;2.75;;;;;;;10.61;77.70;98433.81;4147625;28;20049;-66
2022/11/17 05:39:33;;;;;;;4.80;2.30;;;;;;;10.57;78.01;98422.63;4147511;28;20049;-66
2022/11/17 05:41:37;;;;;;;5.55;2.25;;;;;;;10.54;78.13;98432.22;4145249;28;20033;-65
2022/11/17 05:43:40;;;;;;;5.03;2.72;;;;;;;10.57;78.79;98434.75;4145159;28;20076;-66
2022/11/17 05:45:45;;;;;;;3.17;1.83;;;;;;;10.54;78.42;98434.81;4146154;28;20049;-65
2022/11/17 05:47:48;;;;;;;5.68;1.85;;;;;;;10.47;79.39;98434.09;4147489;28;20164;-65
2022/11/17 05:49:50;;;;;;;3.47;1.70;;;;;;;10.50;78.54;98428.84;4144793;28;20129;-66
2022/11/17 05:51:53;;;;;;;4.65;2.30;;;;;;;10.52;79.13;98426.19;4146676;28;20034;-65
2022/11/17 05:53:56;;;;;;;7.45;2.30;;;;;;;10.50;79.89;98423.63;4144177;28;20488;-66
2022/11/17 05:56:28;;;;;;;4.65;1.63;;;;;;;10.56;78.41;98412.28;4144496;28;20488;-66
2022/11/17 05:58:33;;;;;;;4.22;2.20;;;;;;;10.55;78.53;98416.59;4146423;28;20045;-66
2022/11/17 06:00:37;;;;;;;5.15;2.05;;;;;;;10.54;78.99;98403.63;4146430;28;20048;-65
2022/11/17 06:02:44;;;;;;;2.97;1.73;;;;;;;10.52;79.25;98410.63;4144932;28;20034;-66
2022/11/17 06:04:48;;;;;;;3.28;1.60;;;;;;;10.67;79.05;98430.25;4144973;28;20464;-66
2022/11/17 06:06:51;;;;;;;5.90;1.77;;;;;;;10.61;78.73;98433.81;4140506;28;20042;-66
2022/11/17 06:08:55;;;;;;;3.88;1.55;;;;;;;10.69;78.61;98413.75;4148898;28;20121;-65
2022/11/17 06:10:58;;;;;;;4.30;1.75;;;;;;;10.73;78.40;98407.63;4149897;28;20480;-66
2022/11/17 06:13:01;;;;;;;3.33;1.83;;;;;;;10.65;78.84;98422.50;4149151;28;20053;-65
2022/11/17 06:15:06;;;;;;;2.28;1.52;;;;;;;10.67;79.51;98425.06;4147679;28;20431;-65
2022/11/17 06:17:15;;;;;;;3.78;1.63;;;;;;;10.72;79.40;98431.00;4150424;28;20042;-65
2022/11/17 06:19:28;;;;;;;4.32;1.92;;;;;;;10.69;78.97;98437.13;4148369;28;20517;-65
2022/11/17 06:21:33;;;;;;;4.13;1.80;;;;;;;10.69;79.15;98439.75;4165445;28;20053;-66
2022/11/17 06:23:56;;;;;;;4.93;2.10;;;;;;;10.73;79.16;98441.41;4145885;28;20076;-65
2022/11/17 06:26:02;;;;;;;6.22;2.00;;;;;;;10.82;78.59;98436.00;4143304;28;20038;-65
2022/11/17 06:28:16;;;;;;;3.33;1.85;;;;;;;10.86;77.89;98436.78;4148745;28;20050;-65
2022/11/17 06:30:20;;;;;;;4.70;1.63;;;;;;;10.79;78.20;98433.47;4150257;28;20041;-65
2022/11/17 06:32:23;;;;;;;4.85;1.90;;;;;;;10.70;78.80;98436.22;4150116;28;20088;-65
2022/11/17 06:34:27;;;;;;;3.92;1.63;;;;;;;10.74;78.33;98448.28;4148466;28;20069;-65
2022/11/17 06:36:30;;;;;;;4.65;2.03;;;;;;;10.73;78.34;98440.53;4146934;28;20420;-66
2022/11/17 06:38:34;;;;;;;5.25;1.77;;;;;;;10.76;78.80;98441.34;4135425;28;20088;-65
2022/11/17 06:40:37;;;;;;;5.20;1.97;;;;;;;10.83;78.83;98442.94;4147868;28;20088;-66
2022/11/17 06:45:00;;;;;;;3.90;1.90;;;;;;;10.76;79.20;98443.94;4143562;28;20030;-66
2022/11/17 06:47:05;;;;;;;5.78;1.67;;;;;;;10.73;78.91;98438.81;4139609;28;20107;-66
2022/11/17 06:49:08;;;;;;;2.30;1.60;;;;;;;10.63;79.16;98448.50;4148967;28;20042;-66
2022/11/17 06:51:11;;;;;;;5.03;1.90;;;;;;;10.73;79.59;98444.00;4147596;28;20072;-65
2022/11/17 06:53:14;;;;;;;3.58;1.73;;;;;;;10.70;79.75;98441.44;4144193;28;20045;-66
2022/11/17 06:55:17;;;;;;;6.32;1.95;;;;;;;10.82;78.49;98443.81;4133500;28;20053;-66
2022/11/17 06:57:20;;;;;;;5.45;1.58;;;;;;;10.79;79.54;98451.66;4133533;28;20070;-65
2022/11/17 06:59:22;;;;;;;1.92;1.35;;;;;;;10.88;79.10;98448.03;4133385;28;20046;-66
2022/11/17 07:01:25;;;;;;;2.83;1.60;;;;;;;10.81;79.71;98449.03;4140132;28;20050;-66
2022/11/17 07:03:29;;;;;;;2.40;1.40;;;;;;;10.87;78.88;98445.47;4147511;28;20074;-66
2022/11/17 07:05:34;;;;;;;2.42;1.52;;;;;;;10.87;79.32;98443.72;4149041;28;20073;-66
2022/11/17 07:07:37;;;;;;;2.88;1.65;;;;;;;10.85;79.39;98444.63;4149614;28;20519;-65
2022/11/17 07:09:39;;;;;;;3.25;1.70;;;;;;;10.97;79.14;98444.41;4165026;28;20060;-66
2022/11/17 07:11:42;;;;;;;6.35;2.28;;;;;;;11.03;78.45;98449.47;4164081;28;20042;-66
2022/11/17 07:13:45;;;;;;;3.22;1.75;;;;;;;11.08;78.35;98444.16;4163611;28;20415;-66
2022/11/17 07:15:49;;;;;;;3.47;1.50;;;;;;;11.10;78.59;98445.84;4148260;28;20546;-66
2022/11/17 07:17:52;;;;;;;2.13;1.33;;;;;;;11.00;78.87;98449.53;4148232;28;20042;-66
2022/11/17 07:19:56;;;;;;;3.97;1.52;;;;;;;11.02;78.80;98446.91;4133235;28;20049;-65
2022/11/17 07:21:59;;;;;;;2.53;1.45;;;;;;;11.16;78.22;98448.31;4133238;28;20125;-66
2022/11/17 07:24:02;;;;;;;2.10;1.52;;;;;;;11.16;78.52;98458.72;4132261;28;20046;-66
2022/11/17 07:26:06;;;;;;;5.38;1.40;;;;;;;11.10;78.98;98445.84;4133064;28;20443;-65
2022/11/17 07:28:09;;;;;;;6.10;1.85;;;;;;;11.13;79.19;98451.00;4132919;28;20493;-66
2022/11/17 07:30:13;;;;;;;3.15;1.20;;;;;;;11.25;78.25;98444.69;4137207;28;20045;-65
2022/11/17 07:32:15;;;;;;;5.40;1.58;;;;;;;11.27;78.09;98453.31;4149139;28;20052;-65
2022/11/17 07:34:18;;;;;;;2.90;1.40;;;;;;;11.15;78.64;98449.19;4146708;28;20073;-66
2022/11/17 07:36:23;;;;;;;3.08;1.63;;;;;;;11.29;78.85;98448.09;4149175;28;20068;-66
2022/11/17 07:38:25;;;;;;;4.55;1.50;;;;;;;11.35;77.33;98460.97;4140086;28;20508;-66
2022/11/17 07:40:29;;;;;;;3.33;1.48;;;;;;;11.19;78.44;98457.81;4131627;28;20042;-66
2022/11/17 07:42:31;;;;;;;3.08;1.50;;;;;;;11.29;78.33;98455.88;4133775;28;20042;-66
2022/11/17 07:44:35;;;;;;;3.08;1.55;;;;;;;11.29;78.20;98455.88;4141280;28;20044;-66
2022/11/17 07:46:37;;;;;;;6.75;1.30;;;;;;;11.40;77.53;98459.09;4147303;28;20038;-66
2022/11/17 07:48:41;;;;;;;2.95;1.42;;;;;;;11.34;77.88;98448.81;4148847;28;20038;-66
2022/11/17 07:50:44;;;;;;;7.72;1.88;;;;;;;11.42;77.81;98462.53;4148911;28;20038;-65
2022/11/17 07:52:49;;;;;;;3.45;1.50;;;;;;;11.46;77.43;98459.00;4142661;28;20038;-65
2022/11/17 07:54:52;;;;;;;5.53;1.30;;;;;;;11.46;77.55;98452.91;4136869;28;20461;-66
2022/11/17 07:56:55;;;;;;;3.47;1.38;;;;;;;11.45;77.74;98459.03;4144450;28;20065;-65
2022/11/17 07:58:58;;;;;;;3.50;1.27;;;;;;;11.47;77.72;98470.25;4146034;28;20069;-65
2022/11/17 08:01:04;;;;;;;3.58;1.17;;;;;;;11.51;76.51;98467.53;4147535;28;20041;-65
2022/11/17 08:03:08;;;;;;;3.35;1.35;;;;;;;11.61;76.13;98462.13;4147304;28;20038;-65
2022/11/17 08:05:12;;;;;;;5.43;1.42;;;;;;;11.57;77.08;98465.69;4148290;28;20042;-65
2022/11/17 08:07:14;;;;;;;2.53;1.13;;;;;;;11.62;76.95;98469.03;4148674;28;20491;-65
2022/11/17 08:09:19;;;;;;;5.63;1.52;;;;;;;11.62;77.03;98466.44;4148625;28;20088;-65
2022/11/17 08:11:22;;;;;;;4.60;1.40;;;;;;;11.66;76.49;98465.50;4147810;28;20076;-65
2022/11/17 08:13:25;;;;;;;2.85;1.50;;;;;;;11.65;76.24;98475.06;4145999;28;20125;-65
2022/11/17 08:15:28;;;;;;;4.88;1.70;;;;;;;11.63;76.21;98475.97;4146530;28;20495;-67
2022/11/17 08:17:31;;;;;;;5.72;1.50;;;;;;;11.56;77.04;98479.59;4144805;28;22024;-67
2022/11/17 08:19:34;;;;;;;4.25;1.40;;;;;;;11.58;76.67;98472.59;4146191;28;20053;-66
2022/11/17 08:21:38;;;;;;;3.05;1.45;;;;;;;11.64;76.61;98472.50;4135877;28;20073;-66
2022/11/17 08:23:42;;;;;;;3.38;1.27;;;;;;;11.69;76.37;98473.22;4145122;28;20045;-66
2022/11/17 08:25:46;;;;;;;3.63;1.45;;;;;;;11.67;76.84;98472.41;4148283;28;20045;-65
2022/11/17 08:27:50;;;;;;;4.18;1.58;;;;;;;11.67;77.76;98472.41;4134074;28;20555;-65
2022/11/17 08:29:53;;;;;;;3.97;1.30;;;;;;;11.64;77.79;98462.91;4132311;28;20066;-65
2022/11/17 08:31:56;;;;;;;5.40;1.58;;;;;;;11.94;76.21;98457.06;4146872;28;20463;-65
2022/11/17 08:33:59;;;;;;;6.55;1.60;;;;;;;11.83;76.56;98452.94;4146810;28;20030;-65
2022/11/17 08:36:05;;;;;;;2.83;1.15;;;;;;;11.65;77.64;98443.81;4144047;28;20041;-65
2022/11/17 08:38:10;;;;;;;3.88;1.30;;;;;;;11.64;77.70;98462.06;4130235;28;20138;-65
2022/11/17 08:40:14;;;;;;;5.35;1.63;;;;;;;11.85;77.73;98460.72;4148942;28;20041;-65
2022/11/17 08:42:18;;;;;;;6.00;1.40;;;;;;;11.78;78.09;98460.00;4147348;28;20049;-65
2022/11/17 08:44:21;;;;;;;3.33;1.40;;;;;;;11.80;78.30;98468.63;4147332;28;20860;-66
2022/11/17 08:46:25;;;;;;;4.72;1.58;;;;;;;11.71;79.19;98466.25;4138735;28;20068;-66
2022/11/17 08:48:30;;;;;;;5.97;1.63;;;;;;;11.63;78.68;98470.75;4145217;28;20125;-66
2022/11/17 08:50:33;;;;;;;5.45;1.42;;;;;;;11.64;79.24;98470.72;4142273;28;20058;-66
2022/11/17 08:52:36;;;;;;;6.05;2.05;;;;;;;11.75;78.76;98478.28;4145343;28;20538;-66
2022/11/17 08:54:39;;;;;;;4.45;1.42;;;;;;;11.69;78.74;98468.88;4145134;28;20579;-66
2022/11/17 08:56:43;;;;;;;3.22;1.33;;;;;;;11.83;78.12;98468.56;4142576;28;20068;-66
2022/11/17 08:58:47;;;;;;;5.40;1.48;;;;;;;11.78;77.73;98479.97;4147298;28;20565;-66
2022/11/17 09:00:50;;;;;;;6.07;2.97;;;;;;;11.77;78.11;98481.72;4137189;28;20040;-66
2022/11/17 09:02:53;;;;;;;4.05;1.20;;;;;;;11.80;77.79;98476.44;4140941;28;20030;-63
2022/11/17 09:04:56;;;;;;;7.15;1.80;;;;;;;11.82;77.68;98477.25;4146304;28;20038;-65
2022/11/17 09:06:59;;;;;;;6.80;1.45;;;;;;;11.90;77.69;98484.03;4146492;28;20104;-65
2022/11/17 09:09:02;;;;;;;5.20;1.40;;;;;;;11.71;77.27;98487.06;4142112;28;20489;-65
2022/11/17 09:11:07;;;;;;;7.07;1.83;;;;;;;11.78;77.16;98488.63;4142527;28;20077;-65
2022/11/17 09:13:09;;;;;;;7.53;1.90;;;;;;;11.74;77.43;98489.59;4143724;28;20443;-66
2022/11/17 09:15:19;;;;;;;6.68;2.00;;;;;;;11.80;76.97;98488.63;4147385;28;20064;-65
2022/11/17 09:17:21;;;;;;;7.57;2.63;;;;;;;11.89;75.94;98485.78;4138735;28;20104;-65
2022/11/17 09:19:24;;;;;;;5.95;1.60;;;;;;;11.86;75.52;98488.47;4145357;28;20108;-65
2022/11/17 09:21:27;;;;;;;6.30;2.00;;;;;;;11.93;75.89;98504.78;4143851;28;20510;-65
2022/11/17 09:23:30;;;;;;;7.80;1.70;;;;;;;11.97;75.31;98496.06;4146675;28;20459;-65
2022/11/17 09:25:33;;;;;;;7.38;1.50;;;;;;;11.95;74.51;98514.31;4146452;28;20117;-65
2022/11/17 09:27:36;;;;;;;10.35;1.80;;;;;;;11.88;75.43;98517.91;4147691;28;20049;-65
2022/11/17 09:29:39;;;;;;;7.20;1.77;;;;;;;11.92;74.90;98529.97;4146210;28;20451;-66
2022/11/17 09:31:43;;;;;;;7.85;1.77;;;;;;;11.97;75.22;98532.50;4130254;28;20524;-65
2022/11/17 09:33:46;;;;;;;10.55;2.28;;;;;;;12.02;74.97;98533.28;4144450;28;20035;-65
2022/11/17 09:35:49;;;;;;;10.57;2.15;;;;;;;12.08;74.77;98525.31;4142586;28;20423;-66
2022/11/17 09:37:52;;;;;;;7.80;2.00;;;;;;;11.97;74.83;98540.31;4147609;28;20034;-65
2022/11/17 09:39:55;;;;;;;6.82;1.90;;;;;;;11.99;74.71;98535.97;4147717;28;20080;-65
2022/11/17 09:41:58;;;;;;;6.70;1.60;;;;;;;11.98;75.09;98540.28;4149808;28;20042;-65
2022/11/17 09:44:13;;;;;;;9.80;2.13;;;;;;;11.94;74.91;98538.63;4148649;28;20026;-65
2022/11/17 09:46:19;;;;;;;10.65;2.03;;;;;;;11.97;74.66;98548.13;4150760;28;20141;-65
2022/11/17 09:48:40;;;;;;;7.75;1.95;;;;;;;12.05;75.09;98543.63;4150873;28;20049;-65
2022/11/17 09:50:45;;;;;;;9.48;3.75;;;;;;;12.01;75.25;98549.78;4147223;28;20042;-65
2022/11/17 09:52:58;;;;;;;9.35;1.60;;;;;;;12.00;75.55;98543.72;4150314;28;20488;-71
2022/11/17 09:55:10;;;;;;;13.23;2.65;;;;;;;12.10;75.35;98546.13;4133685;28;20046;-70
2022/11/17 09:57:21;;;;;;;15.00;3.03;;;;;;;11.95;73.91;98552.53;4134451;28;20049;-70
2022/11/17 09:59:27;;;;;;;8.00;2.17;;;;;;;11.96;72.99;98551.63;4134450;28;20504;-71
2022/11/17 10:01:31;;;;;;;11.23;2.15;;;;;;;11.99;72.43;98555.03;4160905;28;20046;-72
2022/11/17 10:03:35;;;;;;;9.88;1.90;;;;;;;12.10;71.46;98551.31;4147531;28;20127;-71
2022/11/17 10:05:47;;;;;;;6.68;1.90;;;;;;;12.12;72.33;98559.94;4150202;28;20554;-71
2022/11/17 10:07:53;;;;;;;7.22;2.00;;;;;;;12.22;72.44;98564.94;4134298;28;20540;-72
2022/11/17 10:09:58;;;;;;;13.63;2.30;;;;;;;12.37;72.57;98560.25;4134306;28;20057;-72
2022/11/17 10:12:13;;;;;;;7.03;1.65;;;;;;;12.43;73.70;98565.31;4142811;28;20034;-71
2022/11/17 10:14:18;;;;;;;7.57;1.90;;;;;;;12.52;74.20;98559.88;4149409;28;20418;-70
2022/11/17 10:16:21;;;;;;;;;;;;;;;12.36;73.40;98556.78;4150981;28;20415;-76
2022/11/17 10:18:23;;;;;;;8.85;1.98;;;;;;;12.33;73.33;98556.00;4145757;28;19991;-72
2022/11/17 10:20:28;;;;;;;7.95;1.60;;;;;;;12.33;73.36;98558.63;4140669;28;20132;-71
2022/11/17 10:22:35;;;;;;;8.23;2.15;;;;;;;12.40;73.37;98550.59;4147009;28;20108;-72